Terminal Aerodrome Forecast
Issued by NWS

Home | Current Version | Previous Version | Text Only | Print | Product List | Glossary Off
Versions: 1 2 3 4 5 6 7 8 9 10 11 12 13 14

000
FTUS43 KABR 122337
TAFPIR
TAF
KPIR 122337Z 1300/1324 27010KT P6SM SCT250
     FM130500 29014G23KT P6SM SCT250
     FM130800 30020G31KT P6SM BKN150
     FM131600 32027G40KT P6SM BKN040=

USA.gov is the U.S. government's official web portal to all federal, state and local government web resources and services.